Forecasts are only available for sites displaying the forecast symbol.

Some water levels are actually in metres AHD (Australian Height Datum), click individual sites for more details.

Scroll for more >

River gauges, storages, and weirs in the Murray–Darling Basin

Type Locationsort descending River Water level Flow Volume Release Water temp Salinity Rainfall
River Gauge Albury (Union Bridge) Murray 1.78 m 21/02/2019 7:30 Not measured Not measured Not measured 21.6°C 21/02/2019 7:30 60.1 μS/cm 21/02/2019 7:30 Not measured Full data
River Gauge Balranald Murrumbidgee 1.69 m 21/02/2019 6:45 1268 ML/Day 21/02/2019 6:45 Not measured Not measured 23.8°C 21/02/2019 6:45 91.6 μS/cm 21/02/2019 6:45 Not measured Full data
River Gauge Bandiana Kiewa 0.75 m 21/02/2019 6:45 197 ML/Day 21/02/2019 6:45 Not measured Not measured 20.4°C 21/02/2019 6:45 53.5 μS/cm 21/02/2019 6:45 Not measured Full data
River Gauge Barmah Choke Murray 2.45 m 21/02/2019 6:45 7075 ML/Day 21/02/2019 6:45 Not measured Not measured Not measured Not measured Not measured Full data
River Gauge Biggara Murray 0.22 m 21/02/2019 7:30 156 ML/Day 21/02/2019 7:30 Not measured Not measured 19.6°C 21/02/2019 7:30 52.4 μS/cm 21/02/2019 7:30 0.0 mm 20/02/2019 9:00 Full data
River Gauge Bringenbrong Bridge Murray 1.1 m 21/02/2019 7:30 1548 ML/Day 21/02/2019 7:30 Not measured Not measured Not measured Not measured Not measured Full data
River Gauge Burtundy Darling 0.61 m 21/02/2019 7:15 5 ML/Day 21/02/2019 7:15 Not measured Not measured 20.9°C 21/02/2019 7:15 994.0 μS/cm 21/02/2019 7:15 Not measured Full data
River Gauge Colemans Mitta 2.15 m 21/02/2019 8:00 4353 ML/Day 21/02/2019 8:00 Not measured Not measured 11.6°C 21/02/2019 6:45 47.2 μS/cm 21/02/2019 6:45 Not measured Full data
River Gauge Colignan Murray 2.28 m 21/02/2019 6:45 8820 ML/Day 21/02/2019 6:45 Not measured Not measured 23.1°C 21/02/2019 6:45 73.1 μS/cm 21/02/2019 6:45 Not measured Full data
River Gauge Corowa Murray 2.68 m 21/02/2019 7:30 12059 ML/Day 21/02/2019 7:30 Not measured Not measured 22.6°C 21/02/2019 7:30 48.9 μS/cm 21/02/2019 7:30 Not measured Full data
Storage Dartmouth Dam Mitta 462.36 m 21/02/2019 8:00 Not measured 2490 GL 21/02/2019 8:00 Not measured Not measured Not measured Not measured Full data
River Gauge Doctors Point Murray 2.77 m 21/02/2019 7:30 12454 ML/Day 21/02/2019 7:30 Not measured Not measured 21.9°C 21/02/2019 7:30 51.2 μS/cm 21/02/2019 7:30 Not measured Full data
River Gauge Echuca Wharf Murray 87.2 m 21/02/2019 5:45 Not measured Not measured Not measured Not measured Not measured Not measured Full data
River Gauge Edward Escape Wakool 1.11 m 21/02/2019 6:45 1810 ML/Day 21/02/2019 6:45 Not measured Not measured 21.5°C 21/02/2019 6:45 64.1 μS/cm 21/02/2019 6:45 Not measured Full data
River Gauge Edward River Offtake Murray 2.39 m 21/02/2019 7:00 1547 ML/Day 21/02/2019 7:00 Not measured Not measured 22.9°C 21/02/2019 6:45 41.5 μS/cm 21/02/2019 6:45 Not measured Full data
Weirs Euston Weir Downstream Murray 43.65 m 21/02/2019 6:45 9546 ML/Day 21/02/2019 6:45 Not measured Not measured 23.9°C 21/02/2019 6:45 74.6 μS/cm 21/02/2019 6:45 Not measured Full data
Weirs Euston Weir Upstream Murray 47.78 m 20/02/2019 8:00 Not measured 39 GL 20/02/2019 7:45 Not measured Not measured Not measured 0.0 mm 15/02/2019 9:00 Full data
River Gauge Flow to South Australia Murray Not measured Not measured Not measured 8186.7 ML/d20/02/2019 7:45 Not measured Not measured Not measured Full data
River Gauge Frenchman Creek Murray 27.35 m 20/02/2019 7:45 Not measured Not measured 699.0 ML/d20/02/2019 7:45 Not measured Not measured Not measured Full data
River Gauge Gulpa Creek Offtake Murray 2.49 m 21/02/2019 6:45 334 ML/Day 21/02/2019 6:45 Not measured Not measured Not measured Not measured Not measured Full data
River Gauge Hinnomunjie Mitta 0.45 m 21/02/2019 6:45 131 ML/Day 21/02/2019 6:45 Not measured Not measured 19.3°C 21/02/2019 6:45 33.4 μS/cm 21/02/2019 6:45 0.0 mm 20/02/2019 9:00 Full data
Storage Hume Dam Murray 177.54 m 21/02/2019 7:30 Not measured 863 GL 21/02/2019 7:30 12149.0 ML/d20/02/2019 8:00 Not measured Not measured 0.0 mm 20/02/2019 9:00 Full data
River Gauge Jingellic Murray 1.24 m 21/02/2019 6:45 1641 ML/Day 21/02/2019 6:45 Not measured Not measured 20.2°C 21/02/2019 6:45 31.9 μS/cm 21/02/2019 6:45 0.0 mm 20/02/2019 9:00 Full data
River Gauge Kerang Loddon 0.39 m 21/02/2019 6:45 206 ML/Day 21/02/2019 6:45 Not measured Not measured 21.2°C 21/02/2019 6:45 94.3 μS/cm 21/02/2019 6:45 Not measured Full data
River Gauge Lake Albert Murray 0.59 m 21/02/2019 5:45 Not measured 244 GL 21/02/2019 5:45 Not measured Not measured Not measured Not measured Full data
River Gauge Lake Alexandrina Murray 0.56 m 21/02/2019 5:45 Not measured 1491 GL 21/02/2019 5:45 Not measured Not measured 990.0 μS/cm 21/02/2019 6:45 Not measured Full data
Storage Lake Victoria Murray 24.03 m 21/02/2019 6:45 Not measured 348 GL 21/02/2019 6:45 Not measured 20.3°C 21/02/2019 6:45 169.6 μS/cm 21/02/2019 6:45 Not measured Full data
Weirs Lock 1 Downstream Murray 0.65 m 21/02/2019 6:45 Not measured Not measured 5233.0 ML/d20/02/2019 7:45 Not measured Not measured Not measured Full data
Weirs Lock 1 Upstream Murray 3.23 m 21/02/2019 6:45 Not measured Not measured Not measured 23.1°C 21/02/2019 6:45 229.3 μS/cm 21/02/2019 6:45 Not measured Full data
Weirs Lock 2 Downstream Murray 3.42 m 21/02/2019 6:45 Not measured Not measured Not measured Not measured Not measured Not measured Full data
Weirs Lock 2 Upstream Murray 6.11 m 21/02/2019 6:45 Not measured Not measured Not measured 23.4°C 21/02/2019 6:45 227.4 μS/cm 21/02/2019 6:45 Not measured Full data
Weirs Lock 3 Downstream Murray 6.34 m 21/02/2019 6:45 Not measured Not measured Not measured Not measured Not measured Not measured Full data
Weirs Lock 3 Upstream Murray 9.82 m 21/02/2019 6:45 Not measured Not measured Not measured Not measured Not measured Not measured Full data
Weirs Lock 4 Downstream Murray 10.69 m 21/02/2019 6:45 Not measured Not measured Not measured Not measured Not measured Not measured Full data
Weirs Lock 4 Upstream Murray 13.24 m 21/02/2019 6:45 Not measured Not measured Not measured Not measured Not measured Not measured Full data
Weirs Lock 5 Downstream Murray 13.47 m 21/02/2019 6:45 Not measured Not measured Not measured Not measured Not measured Not measured Full data
Weirs Lock 5 Upstream Murray 16.32 m 21/02/2019 6:45 Not measured Not measured Not measured 23.3°C 21/02/2019 6:45 147.4 μS/cm 21/02/2019 6:45 Not measured Full data
Weirs Lock 6 Downstream Murray 16.49 m 21/02/2019 6:45 Not measured Not measured Not measured Not measured Not measured Not measured Full data
Weirs Lock 6 Upstream Murray 19.25 m 21/02/2019 6:45 Not measured Not measured Not measured 23.7°C 21/02/2019 6:45 139.3 μS/cm 21/02/2019 6:45 Not measured Full data
Weirs Lock 7 Downstream Murray 20.7 m 21/02/2019 6:45 Not measured Not measured Not measured Not measured Not measured Not measured Full data
Weirs Lock 7 Upstream Murray 21.6 m 21/02/2019 6:45 Not measured Not measured Not measured 23.2°C 21/02/2019 6:45 109.9 μS/cm 21/02/2019 6:45 Not measured Full data
Weirs Lock 8 Upstream Murray 23.98 m 21/02/2019 5:45 Not measured Not measured Not measured 24.0°C 21/02/2019 5:45 107.2 μS/cm 21/02/2019 5:45 Not measured Full data
Weirs Lock 9 Downstream Murray 24.12 m 21/02/2019 6:45 Not measured Not measured Not measured Not measured Not measured Not measured Full data
Weirs Lock 9 Upstream Murray 27.34 m 21/02/2019 6:45 Not measured Not measured Not measured 24.2°C 21/02/2019 6:45 102.3 μS/cm 21/02/2019 6:45 Not measured Full data
River Gauge McCoy Bridge Goulburn 2.32 m 21/02/2019 6:45 2492 ML/Day 21/02/2019 6:45 Not measured Not measured 21.9°C 21/02/2019 6:45 50.1 μS/cm 21/02/2019 6:45 Not measured Full data
Storage Menindee Lakes Darling Not measured Not measured 31 GL 20/02/2019 7:45 Not measured Not measured Not measured Not measured Full data
Weirs Mildura Weir downstream Murray 31.03 m 21/02/2019 6:45 Not measured Not measured Not measured 24.0°C 21/02/2019 6:45 87.4 μS/cm 21/02/2019 6:45 Not measured Full data
River Gauge Morgan Downstream Murray Not measured Not measured Not measured 2319.7 ML/d21/02/2019 6:45 Not measured 229.1 μS/cm 21/02/2019 6:45 Not measured Full data
River Gauge Mulwala Canal Murray Not measured Not measured Not measured 3030.9 ML/d21/02/2019 8:00 Not measured Not measured Not measured Full data
River Gauge Mundoo Barrage Murray 0.51 m 20/02/2019 7:45 Not measured Not measured Not measured Not measured Not measured Not measured Full data
River Gauge Murray Bridge Murray 0.51 m 21/02/2019 6:45 Not measured Not measured Not measured 22.1°C 21/02/2019 6:45 299.9 μS/cm 21/02/2019 6:45 Not measured Full data
River Gauge Peechelba Ovens 126.12 m 21/02/2019 6:45 180 ML/Day 21/02/2019 6:45 Not measured Not measured 22.9°C 21/02/2019 6:45 61.5 μS/cm 21/02/2019 6:45 Not measured Full data
River Gauge Pinegrove Murray 0.92 m 21/02/2019 7:30 90 ML/Day 21/02/2019 7:30 Not measured Not measured 19.5°C 21/02/2019 7:30 69.7 μS/cm 21/02/2019 7:30 0.0 mm 20/02/2019 9:00 Full data
River Gauge Redcliffs Murray Not measured Not measured Not measured Not measured Not measured 89.4 μS/cm 21/02/2019 5:45 Not measured Full data
River Gauge Rochester Campaspe 1.66 m 21/02/2019 6:45 55 ML/Day 21/02/2019 6:45 Not measured Not measured 20.7°C 21/02/2019 6:45 787.8 μS/cm 21/02/2019 6:45 0.0 mm 20/02/2019 9:00 Full data
River Gauge Rufus River Murray 20.91 m 20/02/2019 7:45 Not measured Not measured 2808.3 ML/d20/02/2019 7:45 Not measured 162.0 μS/cm 21/02/2019 6:45 Not measured Full data
Weirs Steven's Weir Downstream Wakool 2.35 m 21/02/2019 6:45 2542 ML/Day 21/02/2019 6:45 Not measured Not measured 23.0°C 21/02/2019 6:45 38.7 μS/cm 21/02/2019 6:45 Not measured Full data
Weirs Steven's Weir Upstream Wakool 4.44 m 21/02/2019 7:00 Not measured Not measured Not measured Not measured Not measured Not measured Full data
River Gauge Stoney Crossing Murray 1.55 m 21/02/2019 6:45 776 ML/Day 21/02/2019 6:45 Not measured 781.2 ML/d20/02/2019 7:45 23.5°C 21/02/2019 6:45 115.6 μS/cm 21/02/2019 6:45 Not measured Full data
River Gauge Swan Hill Murray 1.48 m 21/02/2019 6:45 7878 ML/Day 21/02/2019 6:45 Not measured Not measured 23.1°C 21/02/2019 6:45 60.7 μS/cm 21/02/2019 6:45 Not measured Full data
River Gauge Tallandoon Mitta 2.53 m 21/02/2019 6:45 4399 ML/Day 21/02/2019 6:45 Not measured Not measured 11.9°C 21/02/2019 6:45 35.7 μS/cm 21/02/2019 6:45 Not measured Full data
River Gauge Tauwitchere Barrage Murray 0.52 m 21/02/2019 6:45 Not measured Not measured Not measured Not measured Not measured Not measured Full data
River Gauge Tocumwal Murray 2.05 m 21/02/2019 6:45 8385 ML/Day 21/02/2019 6:45 Not measured Not measured 22.1°C 21/02/2019 6:45 -25.8 μS/cm 21/02/2019 6:45 Not measured Full data
River Gauge Torrumbarry Headworks Murray 85.06 m 21/02/2019 6:45 Not measured Not measured 1971.6 ML/d21/02/2019 6:45 Not measured Not measured Not measured Full data
Weirs Torrumbarry Weir Downstream Murray 2.57 m 21/02/2019 6:45 7599 ML/Day 21/02/2019 6:45 Not measured Not measured 23.5°C 21/02/2019 6:45 67.2 μS/cm 21/02/2019 6:45 Not measured Full data
Weirs Torrumbarry Weir Upstream Murray 86.05 m 21/02/2019 6:30 Not measured 37 GL 20/02/2019 7:45 Not measured 23.5°C 20/02/2019 7:45 67.1 μS/cm 21/02/2019 5:45 0.0 mm 19/02/2019 9:00 Full data
River Gauge Wakool Canal Wakool 0.5 m 21/02/2019 6:45 Not measured Not measured 99.4 ML/d21/02/2019 8:00 Not measured Not measured Not measured Full data
River Gauge Wakool Junction Murray 3.55 m 21/02/2019 6:45 10084 ML/Day 21/02/2019 6:45 Not measured Not measured 23.5°C 21/02/2019 6:45 66.9 μS/cm 21/02/2019 6:45 Not measured Full data
River Gauge Weir 32 Upstream Darling 1.01 m 21/02/2019 6:45 6 ML/Day 21/02/2019 6:45 Not measured Not measured 23.6°C 21/02/2019 6:45 1114.1 μS/cm 21/02/2019 6:45 Not measured Full data
Weirs Wentworth Weir Murray 27.66 m 21/02/2019 8:00 Not measured Not measured 7471.0 ML/d21/02/2019 8:00 Not measured 86.0 μS/cm 20/02/2019 7:45 0.0 mm 31/01/2019 9:00 Full data
River Gauge Wilcania Darling -0.27 m 21/02/2019 6:45 1 ML/Day 21/02/2019 6:45 Not measured Not measured 18.3°C 21/02/2019 6:45 0.0 μS/cm 21/02/2019 6:45 Not measured Full data
River Gauge Yarrawonga Main Channel Murray 123.43 m 21/02/2019 6:45 Not measured Not measured 429.2 ML/d21/02/2019 6:45 Not measured Not measured Not measured Full data
Weirs Yarrawonga Weir Downstream Murray 1.42 m 21/02/2019 7:15 8245 ML/Day 21/02/2019 7:15 Not measured Not measured 21.9°C 21/02/2019 7:15 42.8 μS/cm 21/02/2019 7:15 Not measured Full data
Weirs Yarrawonga Weir Upstream Murray 124.74 m 21/02/2019 7:15 Not measured Not measured Not measured Not measured Not measured 0.0 mm 20/02/2019 9:00 Full data